sensor_id;sensor_type;location;lat;lon;timestamp;pressure;altitude;pressure_sealevel;temperature;humidity
39105;BME280;46464;51.154;13.812;2023-05-02T00:00:10;52061.69;;;-146.96;69.97
39105;BME280;46464;51.154;13.812;2023-05-02T00:02:37;52057.63;;;-146.96;70.12
39105;BME280;46464;51.154;13.812;2023-05-02T00:05:04;52065.75;;;-146.96;70.31
39105;BME280;46464;51.154;13.812;2023-05-02T00:07:31;52051.50;;;-146.96;70.67
39105;BME280;46464;51.154;13.812;2023-05-02T00:09:58;52065.75;;;-146.96;71.28
39105;BME280;46464;51.154;13.812;2023-05-02T00:12:26;52104.41;;;-146.96;71.44
39105;BME280;46464;51.154;13.812;2023-05-02T00:14:52;52039.31;;;-146.96;71.87
39105;BME280;46464;51.154;13.812;2023-05-02T00:17:19;52077.97;;;-146.96;72.28
39105;BME280;46464;51.154;13.812;2023-05-02T00:19:46;52094.25;;;-146.96;72.46
39105;BME280;46464;51.154;13.812;2023-05-02T00:22:12;52096.28;;;-146.96;72.83
39105;BME280;46464;51.154;13.812;2023-05-02T00:24:38;52055.59;;;-146.96;73.68
39105;BME280;46464;51.154;13.812;2023-05-02T00:27:05;52112.56;;;-146.96;73.74
39105;BME280;46464;51.154;13.812;2023-05-02T00:29:32;52059.66;;;-146.96;73.95
39105;BME280;46464;51.154;13.812;2023-05-02T00:31:58;52075.94;;;-146.96;74.25
39105;BME280;46464;51.154;13.812;2023-05-02T00:34:28;52027.09;;;-146.96;73.92
39105;BME280;46464;51.154;13.812;2023-05-02T00:36:55;52071.84;;;-146.96;74.31
39105;BME280;46464;51.154;13.812;2023-05-02T00:39:22;52049.47;;;-146.96;73.58
39105;BME280;46464;51.154;13.812;2023-05-02T00:41:48;52069.81;;;-146.96;73.84
39105;BME280;46464;51.154;13.812;2023-05-02T00:44:15;52059.66;;;-146.96;73.96
39105;BME280;46464;51.154;13.812;2023-05-02T00:46:42;52077.97;;;-146.96;72.86
39105;BME280;46464;51.154;13.812;2023-05-02T00:49:08;52053.53;;;-146.96;71.94
39105;BME280;46464;51.154;13.812;2023-05-02T00:51:35;52059.66;;;-146.96;71.35
39105;BME280;46464;51.154;13.812;2023-05-02T00:54:01;52063.72;;;-146.96;72.01
39105;BME280;46464;51.154;13.812;2023-05-02T00:56:28;52059.66;;;-146.96;71.53
39105;BME280;46464;51.154;13.812;2023-05-02T00:58:54;52049.47;;;-146.96;70.81
39105;BME280;46464;51.154;13.812;2023-05-02T01:01:35;52080.00;;;-146.96;71.11
39105;BME280;46464;51.154;13.812;2023-05-02T01:04:20;52069.81;;;-146.96;71.52
39105;BME280;46464;51.154;13.812;2023-05-02T01:12:09;52112.56;;;-146.96;72.53
39105;BME280;46464;51.154;13.812;2023-05-02T01:14:41;52116.63;;;-146.96;72.75
39105;BME280;46464;51.154;13.812;2023-05-02T01:17:10;52120.69;;;-146.96;73.03
39105;BME280;46464;51.154;13.812;2023-05-02T01:19:39;52084.06;;;-146.96;73.49
39105;BME280;46464;51.154;13.812;2023-05-02T01:22:07;52069.81;;;-146.96;73.87
39105;BME280;46464;51.154;13.812;2023-05-02T01:24:36;52061.69;;;-146.96;74.39
39105;BME280;46464;51.154;13.812;2023-05-02T01:27:06;52063.72;;;-146.96;74.61
39105;BME280;46464;51.154;13.812;2023-05-02T01:29:36;52057.63;;;-146.96;74.73
39105;BME280;46464;51.154;13.812;2023-05-02T01:32:05;52092.22;;;-146.96;75.33
39105;BME280;46464;51.154;13.812;2023-05-02T01:34:32;52098.31;;;-146.96;75.60
39105;BME280;46464;51.154;13.812;2023-05-02T01:37:01;52094.25;;;-146.96;75.91
39105;BME280;46464;51.154;13.812;2023-05-02T01:39:29;52110.53;;;-146.96;76.22
39105;BME280;46464;51.154;13.812;2023-05-02T01:41:56;52090.16;;;-146.96;76.23
39105;BME280;46464;51.154;13.812;2023-05-02T01:44:24;52077.97;;;-146.96;75.65
39105;BME280;46464;51.154;13.812;2023-05-02T01:46:52;52082.03;;;-146.96;75.78
39105;BME280;46464;51.154;13.812;2023-05-02T01:49:20;52104.41;;;-146.96;74.74
39105;BME280;46464;51.154;13.812;2023-05-02T01:51:48;52077.97;;;-146.96;75.05
39105;BME280;46464;51.154;13.812;2023-05-02T01:54:16;52106.44;;;-146.96;75.03
39105;BME280;46464;51.154;13.812;2023-05-02T01:56:43;52110.53;;;-146.96;74.98
39105;BME280;46464;51.154;13.812;2023-05-02T01:59:12;52094.25;;;-146.96;75.08
39105;BME280;46464;51.154;13.812;2023-05-02T02:01:39;52077.97;;;-146.96;75.28
39105;BME280;46464;51.154;13.812;2023-05-02T02:04:07;52096.28;;;-146.96;75.63
39105;BME280;46464;51.154;13.812;2023-05-02T02:06:34;52063.72;;;-146.96;75.89
39105;BME280;46464;51.154;13.812;2023-05-02T02:09:01;52090.16;;;-146.96;75.80
39105;BME280;46464;51.154;13.812;2023-05-02T02:11:38;52118.66;;;-146.96;75.88
39105;BME280;46464;51.154;13.812;2023-05-02T02:14:24;52098.31;;;-146.96;76.13
39105;BME280;46464;51.154;13.812;2023-05-02T02:16:52;52088.13;;;-146.96;76.32
39105;BME280;46464;51.154;13.812;2023-05-02T02:19:20;52106.44;;;-146.96;76.45
39105;BME280;46464;51.154;13.812;2023-05-02T02:21:47;52130.88;;;-146.96;76.70
39105;BME280;46464;51.154;13.812;2023-05-02T02:24:16;52094.25;;;-146.96;76.89
39105;BME280;46464;51.154;13.812;2023-05-02T02:26:44;52100.34;;;-146.96;77.18
39105;BME280;46464;51.154;13.812;2023-05-02T02:29:11;52122.72;;;-146.96;77.36
39105;BME280;46464;51.154;13.812;2023-05-02T02:31:38;52102.38;;;-146.96;77.62
39105;BME280;46464;51.154;13.812;2023-05-02T02:34:05;52092.22;;;-146.96;77.54
39105;BME280;46464;51.154;13.812;2023-05-02T02:41:42;52035.25;;;-146.96;73.85
39105;BME280;46464;51.154;13.812;2023-05-02T02:44:20;52067.78;;;-146.96;72.82
39105;BME280;46464;51.154;13.812;2023-05-02T02:47:10;52059.66;;;-146.96;72.78
39105;BME280;46464;51.154;13.812;2023-05-02T02:49:43;52082.03;;;-146.96;72.67
39105;BME280;46464;51.154;13.812;2023-05-02T02:52:15;52088.13;;;-146.96;72.89
39105;BME280;46464;51.154;13.812;2023-05-02T02:54:50;52077.97;;;-146.96;71.72
39105;BME280;46464;51.154;13.812;2023-05-02T02:57:19;52086.09;;;-146.96;71.51
39105;BME280;46464;51.154;13.812;2023-05-02T03:02:21;52092.22;;;-146.96;71.18
39105;BME280;46464;51.154;13.812;2023-05-02T03:04:52;52088.13;;;-146.96;71.42
39105;BME280;46464;51.154;13.812;2023-05-02T03:07:19;52082.03;;;-146.96;71.00
39105;BME280;46464;51.154;13.812;2023-05-02T03:09:46;52110.53;;;-146.96;70.96
39105;BME280;46464;51.154;13.812;2023-05-02T03:12:13;52118.66;;;-146.96;71.04
39105;BME280;46464;51.154;13.812;2023-05-02T03:14:40;52073.91;;;-146.96;71.16
39105;BME280;46464;51.154;13.812;2023-05-02T03:17:07;52073.91;;;-146.96;71.21
39105;BME280;46464;51.154;13.812;2023-05-02T03:19:33;52080.00;;;-146.96;70.72
39105;BME280;46464;51.154;13.812;2023-05-02T03:22:00;52061.69;;;-146.96;70.75
39105;BME280;46464;51.154;13.812;2023-05-02T03:24:26;52080.00;;;-146.96;70.88
39105;BME280;46464;51.154;13.812;2023-05-02T03:26:53;52063.72;;;-146.96;70.47
39105;BME280;46464;51.154;13.812;2023-05-02T03:29:19;52092.22;;;-146.96;70.35
39105;BME280;46464;51.154;13.812;2023-05-02T03:31:46;52094.25;;;-146.96;70.39
39105;BME280;46464;51.154;13.812;2023-05-02T03:34:12;52084.06;;;-146.96;70.39
39105;BME280;46464;51.154;13.812;2023-05-02T03:36:39;52116.63;;;-146.96;70.85
39105;BME280;46464;51.154;13.812;2023-05-02T03:39:05;52100.34;;;-146.96;70.41
39105;BME280;46464;51.154;13.812;2023-05-02T03:41:32;52110.53;;;-146.96;70.52
39105;BME280;46464;51.154;13.812;2023-05-02T03:43:58;52114.59;;;-146.96;70.43
39105;BME280;46464;51.154;13.812;2023-05-02T03:46:25;52134.94;;;-146.96;69.99
39105;BME280;46464;51.154;13.812;2023-05-02T03:48:51;52080.00;;;-146.96;70.08
39105;BME280;46464;51.154;13.812;2023-05-02T03:51:18;52086.09;;;-146.96;69.78
39105;BME280;46464;51.154;13.812;2023-05-02T03:53:45;52053.53;;;-146.96;69.62
39105;BME280;46464;51.154;13.812;2023-05-02T03:56:11;52075.94;;;-146.96;69.86
39105;BME280;46464;51.154;13.812;2023-05-02T03:58:38;52139.00;;;-146.96;69.98
39105;BME280;46464;51.154;13.812;2023-05-02T04:01:07;52106.44;;;-146.96;70.17
39105;BME280;46464;51.154;13.812;2023-05-02T04:03:38;52092.22;;;-146.96;70.12
39105;BME280;46464;51.154;13.812;2023-05-02T04:06:04;52112.56;;;-146.96;70.37
39105;BME280;46464;51.154;13.812;2023-05-02T04:08:31;52104.41;;;-146.96;70.08
39105;BME280;46464;51.154;13.812;2023-05-02T04:10:58;52096.28;;;-146.96;69.83
39105;BME280;46464;51.154;13.812;2023-05-02T04:13:24;52094.25;;;-146.96;69.85
39105;BME280;46464;51.154;13.812;2023-05-02T04:15:50;52106.44;;;-146.96;70.31
39105;BME280;46464;51.154;13.812;2023-05-02T04:18:17;52130.88;;;-146.96;70.16
39105;BME280;46464;51.154;13.812;2023-05-02T04:20:43;52112.56;;;-146.96;70.10
39105;BME280;46464;51.154;13.812;2023-05-02T04:23:10;52134.94;;;-146.96;70.55
39105;BME280;46464;51.154;13.812;2023-05-02T04:25:37;52136.97;;;-146.96;70.75
39105;BME280;46464;51.154;13.812;2023-05-02T04:28:04;52104.41;;;-146.96;70.84
39105;BME280;46464;51.154;13.812;2023-05-02T04:30:30;52124.75;;;-146.96;70.87
39105;BME280;46464;51.154;13.812;2023-05-02T04:32:57;52086.09;;;-146.96;71.11
39105;BME280;46464;51.154;13.812;2023-05-02T04:35:23;52084.06;;;-146.96;70.75
39105;BME280;46464;51.154;13.812;2023-05-02T04:37:49;52106.44;;;-146.96;71.12
39105;BME280;46464;51.154;13.812;2023-05-02T04:40:16;52130.88;;;-146.96;71.13
39105;BME280;46464;51.154;13.812;2023-05-02T04:42:42;52114.59;;;-146.96;70.99
39105;BME280;46464;51.154;13.812;2023-05-02T04:45:09;52136.97;;;-146.96;71.34
39105;BME280;46464;51.154;13.812;2023-05-02T04:47:35;52100.34;;;-146.96;71.57
39105;BME280;46464;51.154;13.812;2023-05-02T04:50:01;52090.16;;;-146.96;71.31
39105;BME280;46464;51.154;13.812;2023-05-02T04:52:28;52116.63;;;-146.96;70.82
39105;BME280;46464;51.154;13.812;2023-05-02T04:54:55;52126.78;;;-146.96;70.82
39105;BME280;46464;51.154;13.812;2023-05-02T04:57:22;52073.91;;;-146.96;70.95
39105;BME280;46464;51.154;13.812;2023-05-02T04:59:48;52082.03;;;-146.96;70.61
39105;BME280;46464;51.154;13.812;2023-05-02T05:02:15;52134.94;;;-146.96;70.42
39105;BME280;46464;51.154;13.812;2023-05-02T05:04:42;52112.56;;;-146.96;69.90
39105;BME280;46464;51.154;13.812;2023-05-02T05:07:10;52098.31;;;-146.96;69.91
39105;BME280;46464;51.154;13.812;2023-05-02T05:09:37;52065.75;;;-146.96;69.37
39105;BME280;46464;51.154;13.812;2023-05-02T05:12:03;52106.44;;;-146.96;69.37
39105;BME280;46464;51.154;13.812;2023-05-02T05:14:30;52088.13;;;-146.96;69.58
39105;BME280;46464;51.154;13.812;2023-05-02T05:16:56;52065.75;;;-146.96;69.53
39105;BME280;46464;51.154;13.812;2023-05-02T05:19:23;52073.91;;;-146.96;68.43
39105;BME280;46464;51.154;13.812;2023-05-02T05:21:50;52100.34;;;-146.96;68.56
39105;BME280;46464;51.154;13.812;2023-05-02T05:24:16;52067.78;;;-146.96;68.19
39105;BME280;46464;51.154;13.812;2023-05-02T05:26:43;52080.00;;;-146.96;68.34
39105;BME280;46464;51.154;13.812;2023-05-02T05:29:09;52086.09;;;-146.96;68.27
39105;BME280;46464;51.154;13.812;2023-05-02T05:31:35;52077.97;;;-146.96;68.36
39105;BME280;46464;51.154;13.812;2023-05-02T05:34:02;52077.97;;;-146.96;68.08
39105;BME280;46464;51.154;13.812;2023-05-02T05:36:29;52090.16;;;-146.96;68.15
39105;BME280;46464;51.154;13.812;2023-05-02T05:38:56;52094.25;;;-146.96;67.47
39105;BME280;46464;51.154;13.812;2023-05-02T05:41:22;52120.69;;;-146.96;67.89
39105;BME280;46464;51.154;13.812;2023-05-02T05:43:49;52110.53;;;-146.96;67.21
39105;BME280;46464;51.154;13.812;2023-05-02T05:46:16;52094.25;;;-146.96;66.87
39105;BME280;46464;51.154;13.812;2023-05-02T05:48:42;52096.28;;;-146.96;66.21
39105;BME280;46464;51.154;13.812;2023-05-02T05:51:09;52088.13;;;-146.96;66.17
39105;BME280;46464;51.154;13.812;2023-05-02T05:53:35;52057.63;;;-146.96;66.10
39105;BME280;46464;51.154;13.812;2023-05-02T05:56:11;52051.50;;;-146.96;65.44
39105;BME280;46464;51.154;13.812;2023-05-02T05:58:38;52073.91;;;-146.96;64.96
39105;BME280;46464;51.154;13.812;2023-05-02T06:01:05;52049.47;;;-146.96;65.27
39105;BME280;46464;51.154;13.812;2023-05-02T06:03:31;52063.72;;;-146.96;64.23
39105;BME280;46464;51.154;13.812;2023-05-02T06:05:58;52077.97;;;-146.96;63.88
39105;BME280;46464;51.154;13.812;2023-05-02T06:08:25;52055.59;;;-146.96;63.75
39105;BME280;46464;51.154;13.812;2023-05-02T06:10:51;52033.19;;;-146.96;63.66
39105;BME280;46464;51.154;13.812;2023-05-02T06:13:18;52059.66;;;-146.96;61.81
39105;BME280;46464;51.154;13.812;2023-05-02T06:15:44;52033.19;;;-146.96;61.40
39105;BME280;46464;51.154;13.812;2023-05-02T06:18:11;52057.63;;;-146.96;61.59
39105;BME280;46464;51.154;13.812;2023-05-02T06:20:37;52037.28;;;-146.96;61.72
39105;BME280;46464;51.154;13.812;2023-05-02T06:23:03;52039.31;;;-146.96;61.83
39105;BME280;46464;51.154;13.812;2023-05-02T06:25:30;52029.13;;;-146.96;62.26
39105;BME280;46464;51.154;13.812;2023-05-02T06:27:58;52027.09;;;-146.96;62.02
39105;BME280;46464;51.154;13.812;2023-05-02T06:30:24;52037.28;;;-146.96;61.20
39105;BME280;46464;51.154;13.812;2023-05-02T06:32:51;52082.03;;;-146.96;60.92
39105;BME280;46464;51.154;13.812;2023-05-02T06:35:18;52045.41;;;-146.96;61.99
39105;BME280;46464;51.154;13.812;2023-05-02T06:37:44;52041.34;;;-146.96;61.97
39105;BME280;46464;51.154;13.812;2023-05-02T06:40:11;52018.97;;;-146.96;61.61
39105;BME280;46464;51.154;13.812;2023-05-02T06:42:38;52021.00;;;-146.96;60.53
39105;BME280;46464;51.154;13.812;2023-05-02T06:45:05;52012.84;;;-146.96;59.87
39105;BME280;46464;51.154;13.812;2023-05-02T06:47:31;52035.25;;;-146.96;60.16
39105;BME280;46464;51.154;13.812;2023-05-02T06:49:57;52029.13;;;-146.96;60.11
39105;BME280;46464;51.154;13.812;2023-05-02T06:52:24;52031.16;;;-146.96;60.75
39105;BME280;46464;51.154;13.812;2023-05-02T06:54:51;52033.19;;;-146.96;59.88
39105;BME280;46464;51.154;13.812;2023-05-02T06:57:17;52014.88;;;-146.96;58.68
39105;BME280;46464;51.154;13.812;2023-05-02T06:59:43;52014.88;;;-146.96;58.91
39105;BME280;46464;51.154;13.812;2023-05-02T07:02:10;52045.41;;;-146.96;59.61
39105;BME280;46464;51.154;13.812;2023-05-02T07:04:36;51998.63;;;-146.96;58.94
39105;BME280;46464;51.154;13.812;2023-05-02T07:07:03;52014.88;;;-146.96;59.09
39105;BME280;46464;51.154;13.812;2023-05-02T07:09:29;52039.31;;;-146.96;59.05
39105;BME280;46464;51.154;13.812;2023-05-02T07:11:56;52023.03;;;-146.96;57.95
39105;BME280;46464;51.154;13.812;2023-05-02T07:14:22;51996.59;;;-146.96;58.20
39105;BME280;46464;51.154;13.812;2023-05-02T07:16:48;52023.03;;;-146.96;58.99
39105;BME280;46464;51.154;13.812;2023-05-02T07:19:15;52035.25;;;-146.96;58.58
39105;BME280;46464;51.154;13.812;2023-05-02T07:21:42;51992.50;;;-146.96;57.21
39105;BME280;46464;51.154;13.812;2023-05-02T07:24:08;52006.75;;;-146.96;58.14
39105;BME280;46464;51.154;13.812;2023-05-02T07:26:34;52012.84;;;-146.96;58.44
39105;BME280;46464;51.154;13.812;2023-05-02T07:29:01;52023.03;;;-146.96;57.80
39105;BME280;46464;51.154;13.812;2023-05-02T07:31:27;52018.97;;;-146.96;58.46
39105;BME280;46464;51.154;13.812;2023-05-02T07:33:54;52016.94;;;-146.96;59.14
39105;BME280;46464;51.154;13.812;2023-05-02T07:36:20;52010.81;;;-146.96;60.06
39105;BME280;46464;51.154;13.812;2023-05-02T07:38:47;52008.78;;;-146.96;59.94
39105;BME280;46464;51.154;13.812;2023-05-02T07:41:13;52012.84;;;-146.96;59.95
39105;BME280;46464;51.154;13.812;2023-05-02T07:43:40;52039.31;;;-146.96;61.22
39105;BME280;46464;51.154;13.812;2023-05-02T07:46:06;52035.25;;;-146.96;61.54
39105;BME280;46464;51.154;13.812;2023-05-02T07:48:32;52021.00;;;-146.96;61.22
39105;BME280;46464;51.154;13.812;2023-05-02T07:51:06;52049.47;;;-146.96;61.75
39105;BME280;46464;51.154;13.812;2023-05-02T07:53:33;52039.31;;;-146.96;60.96
39105;BME280;46464;51.154;13.812;2023-05-02T07:55:59;52031.16;;;-146.96;62.23
39105;BME280;46464;51.154;13.812;2023-05-02T07:58:26;52055.59;;;-146.96;63.05
39105;BME280;46464;51.154;13.812;2023-05-02T08:00:52;52029.13;;;-146.96;64.26
39105;BME280;46464;51.154;13.812;2023-05-02T08:03:19;52071.84;;;-146.96;65.24
39105;BME280;46464;51.154;13.812;2023-05-02T08:05:45;52061.69;;;-146.96;65.48
39105;BME280;46464;51.154;13.812;2023-05-02T08:08:12;52047.44;;;-146.96;66.49
39105;BME280;46464;51.154;13.812;2023-05-02T08:10:38;52049.47;;;-146.96;68.00
39105;BME280;46464;51.154;13.812;2023-05-02T08:13:04;52084.06;;;-146.96;68.26
39105;BME280;46464;51.154;13.812;2023-05-02T08:15:31;52039.31;;;-146.96;67.67
39105;BME280;46464;51.154;13.812;2023-05-02T08:17:57;52063.72;;;-146.96;68.52
39105;BME280;46464;51.154;13.812;2023-05-02T08:20:25;52061.69;;;-146.96;68.98
39105;BME280;46464;51.154;13.812;2023-05-02T08:22:51;52035.25;;;-146.96;68.70
39105;BME280;46464;51.154;13.812;2023-05-02T08:25:17;52033.19;;;-146.96;65.53
39105;BME280;46464;51.154;13.812;2023-05-02T08:27:44;52010.81;;;-146.96;62.32
39105;BME280;46464;51.154;13.812;2023-05-02T08:30:10;52016.94;;;-146.96;62.22
39105;BME280;46464;51.154;13.812;2023-05-02T08:32:37;52006.75;;;-146.96;61.84
39105;BME280;46464;51.154;13.812;2023-05-02T08:35:03;51992.50;;;-146.96;62.51
39105;BME280;46464;51.154;13.812;2023-05-02T08:37:30;52006.75;;;-146.96;62.32
39105;BME280;46464;51.154;13.812;2023-05-02T08:39:57;52006.75;;;-146.96;62.58
39105;BME280;46464;51.154;13.812;2023-05-02T08:42:24;52004.72;;;-146.96;61.42
39105;BME280;46464;51.154;13.812;2023-05-02T08:44:51;51998.63;;;-146.96;62.14
39105;BME280;46464;51.154;13.812;2023-05-02T08:47:17;52012.84;;;-146.96;61.49
39105;BME280;46464;51.154;13.812;2023-05-02T08:49:44;52025.06;;;-146.96;61.21
39105;BME280;46464;51.154;13.812;2023-05-02T08:52:11;52037.28;;;-146.96;61.75
39105;BME280;46464;51.154;13.812;2023-05-02T08:54:39;52000.66;;;-146.96;61.21
39105;BME280;46464;51.154;13.812;2023-05-02T08:57:05;52012.84;;;-146.96;60.45
39105;BME280;46464;51.154;13.812;2023-05-02T08:59:33;51980.31;;;-146.96;62.44
39105;BME280;46464;51.154;13.812;2023-05-02T09:02:11;52018.97;;;-146.96;60.75
39105;BME280;46464;51.154;13.812;2023-05-02T09:04:43;52041.34;;;-146.96;60.16
39105;BME280;46464;51.154;13.812;2023-05-02T09:07:10;51998.63;;;-146.96;60.65
39105;BME280;46464;51.154;13.812;2023-05-02T09:09:36;51996.59;;;-146.96;61.18
39105;BME280;46464;51.154;13.812;2023-05-02T09:12:03;51978.28;;;-146.96;60.59
39105;BME280;46464;51.154;13.812;2023-05-02T09:14:29;51984.38;;;-146.96;60.05
39105;BME280;46464;51.154;13.812;2023-05-02T09:16:59;51984.38;;;-146.96;60.27
39105;BME280;46464;51.154;13.812;2023-05-02T09:19:26;52006.75;;;-146.96;60.57
39105;BME280;46464;51.154;13.812;2023-05-02T09:21:58;51972.16;;;-146.96;60.89
39105;BME280;46464;51.154;13.812;2023-05-02T09:24:25;51994.53;;;-146.96;58.80
39105;BME280;46464;51.154;13.812;2023-05-02T09:27:01;51949.78;;;-146.96;59.12
39105;BME280;46464;51.154;13.812;2023-05-02T09:29:29;51972.16;;;-146.96;59.83
39105;BME280;46464;51.154;13.812;2023-05-02T09:32:03;51974.19;;;-146.96;60.66
39105;BME280;46464;51.154;13.812;2023-05-02T09:34:30;51980.31;;;-146.96;59.17
39105;BME280;46464;51.154;13.812;2023-05-02T09:36:57;51984.38;;;-146.96;58.06
39105;BME280;46464;51.154;13.812;2023-05-02T09:39:24;51939.63;;;-146.96;55.87
39105;BME280;46464;51.154;13.812;2023-05-02T09:41:51;51939.63;;;-146.96;56.77
39105;BME280;46464;51.154;13.812;2023-05-02T09:44:18;51939.63;;;-146.96;56.68
39105;BME280;46464;51.154;13.812;2023-05-02T09:46:49;51933.50;;;-146.96;56.34
39105;BME280;46464;51.154;13.812;2023-05-02T09:49:15;51931.47;;;-146.96;56.65
39105;BME280;46464;51.154;13.812;2023-05-02T09:51:46;51970.13;;;-146.96;56.32
39105;BME280;46464;51.154;13.812;2023-05-02T09:54:13;51939.63;;;-146.96;56.79
39105;BME280;46464;51.154;13.812;2023-05-02T09:57:13;51949.78;;;-146.96;56.99
39105;BME280;46464;51.154;13.812;2023-05-02T09:59:32;51937.56;;;-146.96;55.94
39105;BME280;46464;51.154;13.812;2023-05-02T10:02:00;51945.72;;;-146.96;56.82
39105;BME280;46464;51.154;13.812;2023-05-02T10:04:30;51947.75;;;-146.96;57.80
39105;BME280;46464;51.154;13.812;2023-05-02T10:06:57;51962.00;;;-146.96;57.99
39105;BME280;46464;51.154;13.812;2023-05-02T10:09:24;51982.34;;;-146.96;57.86
39105;BME280;46464;51.154;13.812;2023-05-02T10:11:52;51955.88;;;-146.96;58.99
39105;BME280;46464;51.154;13.812;2023-05-02T10:14:19;51923.34;;;-146.96;59.21
39105;BME280;46464;51.154;13.812;2023-05-02T10:19:44;51943.69;;;-146.96;58.59
39105;BME280;46464;51.154;13.812;2023-05-02T10:22:17;51933.50;;;-146.96;58.93
39105;BME280;46464;51.154;13.812;2023-05-02T10:24:45;51909.09;;;-146.96;57.53
39105;BME280;46464;51.154;13.812;2023-05-02T10:27:13;51900.97;;;-146.96;56.12
39105;BME280;46464;51.154;13.812;2023-05-02T10:29:40;51937.56;;;-146.96;57.07
39105;BME280;46464;51.154;13.812;2023-05-02T10:32:07;51939.63;;;-146.96;58.29
39105;BME280;46464;51.154;13.812;2023-05-02T10:34:34;51947.75;;;-146.96;59.15
39105;BME280;46464;51.154;13.812;2023-05-02T10:37:01;51957.91;;;-146.96;59.18
39105;BME280;46464;51.154;13.812;2023-05-02T10:39:28;51929.44;;;-146.96;59.64
39105;BME280;46464;51.154;13.812;2023-05-02T10:41:55;51939.63;;;-146.96;60.01
39105;BME280;46464;51.154;13.812;2023-05-02T10:44:35;51947.75;;;-146.96;59.05
39105;BME280;46464;51.154;13.812;2023-05-02T10:47:16;51945.72;;;-146.96;60.09
39105;BME280;46464;51.154;13.812;2023-05-02T10:52:32;51935.53;;;-146.96;60.16
39105;BME280;46464;51.154;13.812;2023-05-02T11:00:27;51941.66;;;-146.96;59.62
39105;BME280;46464;51.154;13.812;2023-05-02T11:02:54;51905.03;;;-146.96;60.11
39105;BME280;46464;51.154;13.812;2023-05-02T11:05:22;51953.84;;;-146.96;59.92
39105;BME280;46464;51.154;13.812;2023-05-02T11:07:49;51923.34;;;-146.96;58.39
39105;BME280;46464;51.154;13.812;2023-05-02T11:12:45;51941.66;;;-146.96;59.17
39105;BME280;46464;51.154;13.812;2023-05-02T11:16:00;51951.81;;;-146.96;58.24
39105;BME280;46464;51.154;13.812;2023-05-02T11:18:04;51937.56;;;-146.96;59.11
39105;BME280;46464;51.154;13.812;2023-05-02T11:20:35;51900.97;;;-146.96;58.88
39105;BME280;46464;51.154;13.812;2023-05-02T11:25:42;51937.56;;;-146.96;57.48
39105;BME280;46464;51.154;13.812;2023-05-02T11:30:53;51905.03;;;-146.96;57.42
39105;BME280;46464;51.154;13.812;2023-05-02T11:33:21;51931.47;;;-146.96;58.07
39105;BME280;46464;51.154;13.812;2023-05-02T11:35:47;51939.63;;;-146.96;57.71
39105;BME280;46464;51.154;13.812;2023-05-02T11:38:14;51900.97;;;-146.96;56.96
39105;BME280;46464;51.154;13.812;2023-05-02T11:40:48;51911.13;;;-146.96;58.08
39105;BME280;46464;51.154;13.812;2023-05-02T11:43:19;51927.41;;;-146.96;57.64
39105;BME280;46464;51.154;13.812;2023-05-02T11:45:47;51949.78;;;-146.96;58.12
39105;BME280;46464;51.154;13.812;2023-05-02T11:48:15;51951.81;;;-146.96;59.57
39105;BME280;46464;51.154;13.812;2023-05-02T11:50:43;51951.81;;;-146.96;61.07
39105;BME280;46464;51.154;13.812;2023-05-02T11:53:16;51951.81;;;-146.96;60.51
39105;BME280;46464;51.154;13.812;2023-05-02T11:55:47;51919.28;;;-146.96;59.46
39105;BME280;46464;51.154;13.812;2023-05-02T11:58:17;51941.66;;;-146.96;58.26
39105;BME280;46464;51.154;13.812;2023-05-02T12:00:45;51951.81;;;-146.96;57.26
39105;BME280;46464;51.154;13.812;2023-05-02T12:03:19;51962.00;;;-146.96;57.36
39105;BME280;46464;51.154;13.812;2023-05-02T12:05:45;51941.66;;;-146.96;58.86
39105;BME280;46464;51.154;13.812;2023-05-02T12:08:46;51935.53;;;-146.96;58.10
39105;BME280;46464;51.154;13.812;2023-05-02T12:11:04;51978.28;;;-146.96;57.92
39105;BME280;46464;51.154;13.812;2023-05-02T12:13:31;51959.97;;;-146.96;59.26
39105;BME280;46464;51.154;13.812;2023-05-02T12:15:58;51937.56;;;-146.96;59.61
39105;BME280;46464;51.154;13.812;2023-05-02T12:18:24;51957.91;;;-146.96;58.09
39105;BME280;46464;51.154;13.812;2023-05-02T12:20:52;52000.66;;;-146.96;57.27
39105;BME280;46464;51.154;13.812;2023-05-02T12:23:20;51951.81;;;-146.96;59.39
39105;BME280;46464;51.154;13.812;2023-05-02T12:25:47;51964.03;;;-146.96;59.67
39105;BME280;46464;51.154;13.812;2023-05-02T12:28:16;51968.09;;;-146.96;59.33
39105;BME280;46464;51.154;13.812;2023-05-02T12:30:43;51941.66;;;-146.96;59.30
39105;BME280;46464;51.154;13.812;2023-05-02T12:33:09;51982.34;;;-146.96;60.10
39105;BME280;46464;51.154;13.812;2023-05-02T12:35:36;51988.44;;;-146.96;60.35
39105;BME280;46464;51.154;13.812;2023-05-02T12:38:10;51947.75;;;-146.96;61.10
39105;BME280;46464;51.154;13.812;2023-05-02T12:40:37;51986.41;;;-146.96;60.55
39105;BME280;46464;51.154;13.812;2023-05-02T12:43:05;51935.53;;;-146.96;61.10
39105;BME280;46464;51.154;13.812;2023-05-02T12:45:35;51931.47;;;-146.96;60.32
39105;BME280;46464;51.154;13.812;2023-05-02T12:48:24;51921.31;;;-146.96;58.40
39105;BME280;46464;51.154;13.812;2023-05-02T12:50:49;51909.09;;;-146.96;59.16
39105;BME280;46464;51.154;13.812;2023-05-02T12:53:16;51878.56;;;-146.96;56.51
39105;BME280;46464;51.154;13.812;2023-05-02T12:55:42;51882.66;;;-146.96;56.94
39105;BME280;46464;51.154;13.812;2023-05-02T12:58:09;51817.53;;;-146.96;56.28
39105;BME280;46464;51.154;13.812;2023-05-02T13:00:39;51854.16;;;-146.96;52.21
39105;BME280;46464;51.154;13.812;2023-05-02T13:03:06;51835.84;;;-146.96;53.08
39105;BME280;46464;51.154;13.812;2023-05-02T13:05:33;51835.84;;;-146.96;54.21